Time;durP1;ratioP1;P1;durP2;ratioP2;P2;SDS_P1;SDS_P2;PMS_P1;PMS_P2;Temp;Humidity;BMP_temperature;BMP_pressure;BME280_temperature;BME280_humidity;BME280_pressure;Samples;Min_cycle;Max_cycle;Signal;HPM_P1;HPM_P2
2022/10/04 00:02:21;;;;;;;;;;;12.60;69.60;;;;;;5022561;28;87005;-42
2022/10/04 00:04:51;;;;;;;;;;;12.60;69.60;;;;;;5022569;28;88033;-42
2022/10/04 00:07:19;;;;;;;;;;;12.60;69.50;;;;;;5021989;28;88005;-42
2022/10/04 00:09:50;;;;;;;;;;;12.60;69.60;;;;;;5022631;28;88164;-42
2022/10/04 00:12:18;;;;;;;;;;;12.60;69.60;;;;;;5022440;28;87971;-42
2022/10/04 00:14:44;;;;;;;;;;;12.60;69.60;;;;;;5022353;28;87096;-42
2022/10/04 00:17:12;;;;;;;;;;;12.60;69.50;;;;;;5025119;28;87436;-42
2022/10/04 00:19:42;;;;;;;;;;;12.60;69.50;;;;;;5024057;28;87221;-42
2022/10/04 00:22:11;;;;;;;;;;;12.60;69.60;;;;;;5025995;28;87258;-42
2022/10/04 00:24:37;;;;;;;;;;;12.50;69.70;;;;;;5026042;28;87266;-42
2022/10/04 00:27:18;;;;;;;;;;;12.50;69.80;;;;;;5025920;28;87222;-42
2022/10/04 00:29:48;;;;;;;;;;;12.50;69.80;;;;;;5026151;28;88382;-42
2022/10/04 00:32:14;;;;;;;;;;;12.50;69.80;;;;;;5025109;28;89032;-42
2022/10/04 00:34:51;;;;;;;;;;;12.50;69.60;;;;;;5025787;28;87222;-42
2022/10/04 00:37:18;;;;;;;;;;;12.50;69.70;;;;;;5025857;28;87527;-42
2022/10/04 00:39:44;;;;;;;;;;;12.50;69.70;;;;;;5028198;28;88073;-42
2022/10/04 00:42:28;;;;;;;;;;;12.60;69.60;;;;;;5025995;28;87275;-42
2022/10/04 00:45:02;;;;;;;;;;;12.50;69.70;;;;;;5025251;28;88236;-42
2022/10/04 00:47:30;;;;;;;;;;;12.40;69.80;;;;;;5025606;28;87063;-42
2022/10/04 00:50:18;;;;;;;;;;;12.40;69.80;;;;;;5025499;28;88007;-42
2022/10/04 00:52:47;;;;;;;;;;;12.40;69.90;;;;;;5024385;28;88192;-42
2022/10/04 00:55:18;;;;;;;;;;;12.40;69.80;;;;;;5025365;28;87067;-42
2022/10/04 00:57:47;;;;;;;;;;;12.50;69.70;;;;;;5025086;28;88157;-42
2022/10/04 01:00:20;;;;;;;;;;;12.40;69.70;;;;;;5027868;28;87000;-42
2022/10/04 01:02:55;;;;;;;;;;;12.40;69.70;;;;;;5025596;28;87317;-41
2022/10/04 01:05:28;;;;;;;;;;;12.50;69.70;;;;;;5024908;28;87946;-42
2022/10/04 01:07:57;;;;;;;;;;;12.40;69.70;;;;;;5025125;28;87020;-42
2022/10/04 01:10:22;;;;;;;;;;;12.40;69.80;;;;;;5025407;28;86948;-42
2022/10/04 01:13:03;;;;;;;;;;;12.40;69.70;;;;;;5024891;28;87952;-42
2022/10/04 01:15:41;;;;;;;;;;;12.40;69.70;;;;;;5025257;28;86313;-42
2022/10/04 01:18:07;;;;;;;;;;;12.40;69.90;;;;;;5025319;28;87023;-42
2022/10/04 01:20:34;;;;;;;;;;;12.30;69.80;;;;;;5024936;28;88197;-43
2022/10/04 01:23:01;;;;;;;;;;;12.40;69.80;;;;;;5025927;28;88470;-42
2022/10/04 01:25:47;;;;;;;;;;;12.40;69.80;;;;;;5024651;28;88154;-42
2022/10/04 01:28:13;;;;;;;;;;;12.40;69.80;;;;;;5024981;28;87073;-42
2022/10/04 01:30:39;;;;;;;;;;;12.40;69.70;;;;;;5023878;28;87301;-42
2022/10/04 01:33:05;;;;;;;;;;;12.40;69.80;;;;;;5024606;28;87942;-42
2022/10/04 01:35:32;;;;;;;;;;;12.40;69.70;;;;;;5024856;28;86889;-41
2022/10/04 01:37:58;;;;;;;;;;;12.40;69.80;;;;;;5024952;28;87378;-42
2022/10/04 01:40:23;;;;;;;;;;;12.30;69.80;;;;;;5024892;28;87245;-43
2022/10/04 01:42:51;;;;;;;;;;;12.30;69.80;;;;;;5024630;28;87119;-42
2022/10/04 01:45:21;;;;;;;;;;;12.30;69.70;;;;;;5027479;28;87492;-42
2022/10/04 01:47:59;;;;;;;;;;;12.30;69.80;;;;;;5024120;28;88127;-43
2022/10/04 01:50:25;;;;;;;;;;;12.30;69.90;;;;;;5024243;28;88421;-42
2022/10/04 01:52:54;;;;;;;;;;;12.30;69.80;;;;;;5024326;28;87927;-42
2022/10/04 01:55:25;;;;;;;;;;;12.30;69.90;;;;;;5024503;28;87081;-42
2022/10/04 01:57:53;;;;;;;;;;;12.30;69.80;;;;;;5024681;28;87452;-42
2022/10/04 02:00:20;;;;;;;;;;;12.20;69.80;;;;;;5022621;28;90881;-42
2022/10/04 02:02:50;;;;;;;;;;;12.30;69.80;;;;;;5024392;28;87066;-42
2022/10/04 02:05:18;;;;;;;;;;;12.20;69.90;;;;;;5024904;28;86503;-42
2022/10/04 02:07:45;;;;;;;;;;;12.20;69.80;;;;;;5026722;28;87855;-43
2022/10/04 02:10:15;;;;;;;;;;;12.20;69.80;;;;;;5024274;28;87468;-42
2022/10/04 02:12:47;;;;;;;;;;;12.20;69.80;;;;;;5023113;28;89026;-42
2022/10/04 02:15:13;;;;;;;;;;;12.20;69.90;;;;;;5024070;28;87241;-42
2022/10/04 02:17:42;;;;;;;;;;;12.20;69.80;;;;;;5024430;28;87333;-42
2022/10/04 02:20:10;;;;;;;;;;;12.20;69.80;;;;;;5023891;28;87998;-43
2022/10/04 02:22:36;;;;;;;;;;;12.20;69.80;;;;;;5024151;28;87103;-42
2022/10/04 02:25:02;;;;;;;;;;;12.20;69.70;;;;;;5024083;28;87068;-42
2022/10/04 02:27:28;;;;;;;;;;;12.20;69.70;;;;;;5023715;28;88041;-42
2022/10/04 02:30:05;;;;;;;;;;;12.20;69.80;;;;;;5027595;28;86368;-42
2022/10/04 02:35:16;;;;;;;;;;;12.20;69.80;;;;;;5024233;28;86876;-42
2022/10/04 02:37:42;;;;;;;;;;;12.20;69.70;;;;;;5023295;28;88040;-42
2022/10/04 02:40:10;;;;;;;;;;;12.20;69.70;;;;;;5023494;28;88033;-43
2022/10/04 02:42:38;;;;;;;;;;;12.10;69.80;;;;;;5023458;28;87014;-42
2022/10/04 02:45:03;;;;;;;;;;;12.10;69.80;;;;;;5023705;28;87266;-42
2022/10/04 02:47:34;;;;;;;;;;;12.10;69.90;;;;;;5023133;28;88301;-42
2022/10/04 02:50:05;;;;;;;;;;;12.10;69.90;;;;;;5022970;28;87062;-43
2022/10/04 02:52:36;;;;;;;;;;;12.10;69.80;;;;;;5026412;28;87285;-42
2022/10/04 02:55:31;;;;;;;;;;;12.10;69.90;;;;;;5024156;28;86328;-42
2022/10/04 02:57:58;;;;;;;;;;;12.10;69.80;;;;;;5022326;28;87183;-41
2022/10/04 03:00:26;;;;;;;;;;;12.10;69.90;;;;;;5023344;28;88149;-42
2022/10/04 03:03:09;;;;;;;;;;;12.10;69.90;;;;;;5022842;28;87949;-42
2022/10/04 03:05:35;;;;;;;;;;;12.10;69.80;;;;;;5023589;28;88793;-42
2022/10/04 03:08:03;;;;;;;;;;;12.10;69.80;;;;;;5023102;28;87813;-42
2022/10/04 03:10:28;;;;;;;;;;;12.10;69.90;;;;;;5023279;28;87000;-41
2022/10/04 03:12:54;;;;;;;;;;;12.00;69.90;;;;;;5025940;28;87414;-41
2022/10/04 03:15:20;;;;;;;;;;;12.00;69.90;;;;;;5023306;28;87098;-41
2022/10/04 03:17:45;;;;;;;;;;;12.00;69.80;;;;;;5023481;28;87545;-41
2022/10/04 03:20:14;;;;;;;;;;;12.00;69.80;;;;;;5023637;28;87410;-41
2022/10/04 03:22:43;;;;;;;;;;;12.00;69.80;;;;;;5023150;28;86704;-42
2022/10/04 03:25:14;;;;;;;;;;;12.00;69.80;;;;;;5022899;28;87256;-42
2022/10/04 03:27:41;;;;;;;;;;;12.00;70.00;;;;;;5022202;28;88834;-41
2022/10/04 03:30:11;;;;;;;;;;;12.00;69.80;;;;;;5023210;28;87015;-42
2022/10/04 03:32:38;;;;;;;;;;;12.00;70.00;;;;;;5023084;28;87496;-42
2022/10/04 03:35:06;;;;;;;;;;;12.00;70.00;;;;;;5025398;28;88009;-42
2022/10/04 03:37:34;;;;;;;;;;;12.00;70.10;;;;;;5023017;28;86963;-42
2022/10/04 03:40:00;;;;;;;;;;;12.00;69.90;;;;;;5022563;28;87921;-42
2022/10/04 03:42:33;;;;;;;;;;;12.00;70.00;;;;;;5022963;28;87161;-42
2022/10/04 03:45:00;;;;;;;;;;;12.00;70.00;;;;;;5023392;28;86927;-41
2022/10/04 03:47:27;;;;;;;;;;;12.00;69.90;;;;;;5022500;28;88030;-42
2022/10/04 03:49:54;;;;;;;;;;;11.90;69.90;;;;;;5022448;28;87115;-42
2022/10/04 03:52:24;;;;;;;;;;;11.90;69.90;;;;;;5022189;28;88036;-42
2022/10/04 03:54:51;;;;;;;;;;;11.90;70.20;;;;;;5021571;28;87862;-42
2022/10/04 03:57:16;;;;;;;;;;;11.90;70.10;;;;;;5025570;28;87010;-41
2022/10/04 03:59:42;;;;;;;;;;;11.90;70.00;;;;;;5022452;28;88059;-42
2022/10/04 04:02:08;;;;;;;;;;;11.90;70.10;;;;;;5022650;28;86991;-41
2022/10/04 04:04:47;;;;;;;;;;;11.90;70.00;;;;;;5022570;28;87344;-41
2022/10/04 04:07:15;;;;;;;;;;;11.90;70.00;;;;;;5022624;28;88283;-42
2022/10/04 04:09:58;;;;;;;;;;;11.90;69.90;;;;;;5023175;28;86309;-42
2022/10/04 04:12:32;;;;;;;;;;;11.90;70.50;;;;;;5022730;28;86956;-42
2022/10/04 04:14:58;;;;;;;;;;;11.90;69.80;;;;;;5021989;28;87981;-42
2022/10/04 04:17:24;;;;;;;;;;;11.90;70.00;;;;;;5021678;28;87931;-41
2022/10/04 04:19:50;;;;;;;;;;;11.90;70.20;;;;;;5025255;28;88355;-42
2022/10/04 04:22:16;;;;;;;;;;;11.80;70.00;;;;;;5022497;28;87112;-42
2022/10/04 04:24:42;;;;;;;;;;;11.80;70.20;;;;;;5022415;28;86940;-41
2022/10/04 04:27:09;;;;;;;;;;;11.80;70.00;;;;;;5021991;28;88319;-41
2022/10/04 04:29:41;;;;;;;;;;;11.90;70.00;;;;;;5022334;28;87021;-42
2022/10/04 04:32:24;;;;;;;;;;;11.80;70.00;;;;;;5022023;28;87439;-42
2022/10/04 04:34:51;;;;;;;;;;;11.80;69.90;;;;;;5022139;28;88340;-42
2022/10/04 04:37:17;;;;;;;;;;;11.80;70.00;;;;;;5022438;28;87116;-42
2022/10/04 04:39:47;;;;;;;;;;;11.80;70.00;;;;;;5022200;28;87500;-42
2022/10/04 04:42:18;;;;;;;;;;;11.80;69.80;;;;;;5024015;28;88843;-41
2022/10/04 04:44:55;;;;;;;;;;;11.80;69.90;;;;;;5022030;28;87534;-41
2022/10/04 04:47:32;;;;;;;;;;;11.80;69.90;;;;;;5021785;28;87639;-42
2022/10/04 04:50:01;;;;;;;;;;;11.80;69.90;;;;;;5021830;28;87015;-41
2022/10/04 04:52:27;;;;;;;;;;;11.70;70.00;;;;;;5021924;28;87449;-41
2022/10/04 04:54:53;;;;;;;;;;;11.70;70.00;;;;;;5021461;28;87614;-42
2022/10/04 04:57:19;;;;;;;;;;;11.70;70.10;;;;;;5022063;28;87055;-42
2022/10/04 04:59:47;;;;;;;;;;;11.70;70.20;;;;;;5022511;28;87142;-41
2022/10/04 05:02:29;;;;;;;;;;;11.70;70.00;;;;;;5021488;28;87926;-42
2022/10/04 05:05:13;;;;;;;;;;;11.70;70.20;;;;;;5025265;28;87533;-42
2022/10/04 05:07:41;;;;;;;;;;;11.70;70.00;;;;;;5022761;28;91773;-42
2022/10/04 05:10:39;;;;;;;;;;;11.70;70.00;;;;;;5025390;28;87531;-42
2022/10/04 05:13:07;;;;;;;;;;;11.70;70.00;;;;;;5023652;28;87340;-42
2022/10/04 05:15:37;;;;;;;;;;;11.70;70.60;;;;;;5024852;28;87960;-41
2022/10/04 05:18:16;;;;;;;;;;;11.70;70.50;;;;;;5024871;28;87212;-42
2022/10/04 05:20:48;;;;;;;;;;;11.70;69.90;;;;;;5025685;28;86980;-42
2022/10/04 05:23:13;;;;;;;;;;;11.70;69.80;;;;;;5025016;28;88152;-43
2022/10/04 05:25:39;;;;;;;;;;;11.70;69.80;;;;;;5028577;28;86430;-42
2022/10/04 05:28:04;;;;;;;;;;;11.70;69.90;;;;;;5024834;28;87254;-42
2022/10/04 05:30:30;;;;;;;;;;;11.70;69.80;;;;;;5024714;28;87131;-42
2022/10/04 05:32:58;;;;;;;;;;;11.70;69.80;;;;;;5024399;28;87947;-42
2022/10/04 05:35:25;;;;;;;;;;;11.70;69.80;;;;;;5024510;28;87961;-41
2022/10/04 05:37:54;;;;;;;;;;;11.60;70.00;;;;;;5024830;28;87055;-42
2022/10/04 05:40:32;;;;;;;;;;;11.70;69.90;;;;;;5024675;28;87623;-42
2022/10/04 05:42:58;;;;;;;;;;;11.60;69.80;;;;;;5024382;28;87128;-42
2022/10/04 05:45:27;;;;;;;;;;;11.60;69.80;;;;;;5024854;28;87129;-41
2022/10/04 05:47:54;;;;;;;;;;;11.60;70.00;;;;;;5027508;28;87401;-42
2022/10/04 05:50:29;;;;;;;;;;;11.60;69.80;;;;;;5024784;28;86356;-41
2022/10/04 05:53:06;;;;;;;;;;;11.60;69.90;;;;;;5024658;28;86912;-42
2022/10/04 05:55:58;;;;;;;;;;;11.60;69.80;;;;;;5024280;28;87878;-42
2022/10/04 05:58:38;;;;;;;;;;;11.60;69.80;;;;;;5023372;28;87831;-42
2022/10/04 06:01:14;;;;;;;;;;;11.60;69.80;;;;;;5024563;28;88396;-41
2022/10/04 06:03:48;;;;;;;;;;;11.60;69.90;;;;;;5024330;28;87961;-42
2022/10/04 06:06:17;;;;;;;;;;;11.60;69.90;;;;;;5024180;28;87121;-42
2022/10/04 06:08:45;;;;;;;;;;;11.60;69.90;;;;;;5024652;28;87460;-42
2022/10/04 06:11:16;;;;;;;;;;;11.60;69.90;;;;;;5027058;28;88062;-42
2022/10/04 06:13:53;;;;;;;;;;;11.60;69.90;;;;;;5024551;28;87785;-42
2022/10/04 06:16:37;;;;;;;;;;;11.50;69.90;;;;;;5023912;28;86516;-42
2022/10/04 06:19:11;;;;;;;;;;;11.50;69.80;;;;;;5024388;28;87201;-41
2022/10/04 06:21:57;;;;;;;;;;;11.60;70.00;;;;;;5024348;28;87565;-42
2022/10/04 06:24:26;;;;;;;;;;;11.60;69.80;;;;;;5021751;28;89182;-42
2022/10/04 06:26:54;;;;;;;;;;;11.50;69.80;;;;;;5023890;28;87773;-42
2022/10/04 06:29:22;;;;;;;;;;;11.50;69.90;;;;;;5024074;28;87082;-42
2022/10/04 06:31:53;;;;;;;;;;;11.50;69.90;;;;;;5023704;28;88062;-42
2022/10/04 06:34:25;;;;;;;;;;;11.50;69.90;;;;;;5026844;28;87072;-42
2022/10/04 06:36:56;;;;;;;;;;;11.50;70.10;;;;;;5023690;28;87252;-42
2022/10/04 06:39:35;;;;;;;;;;;11.50;70.00;;;;;;5023737;28;87069;-42
2022/10/04 06:42:12;;;;;;;;;;;11.50;69.90;;;;;;5024509;28;86573;-42
2022/10/04 06:44:38;;;;;;;;;;;11.50;69.80;;;;;;5023697;28;88175;-42
2022/10/04 06:47:33;;;;;;;;;;;11.50;70.00;;;;;;5023915;28;87090;-42
2022/10/04 06:50:02;;;;;;;;;;;11.50;70.10;;;;;;5020952;28;90658;-42
2022/10/04 06:52:28;;;;;;;;;;;11.50;70.10;;;;;;5021955;28;89618;-42
2022/10/04 06:55:02;;;;;;;;;;;11.50;70.10;;;;;;5023575;28;87138;-42
2022/10/04 06:57:30;;;;;;;;;;;11.40;70.10;;;;;;5026511;28;88227;-42
2022/10/04 06:59:59;;;;;;;;;;;11.40;70.00;;;;;;5023537;28;87606;-41
2022/10/04 07:02:27;;;;;;;;;;;11.50;70.10;;;;;;5023613;28;87323;-42
2022/10/04 07:04:56;;;;;;;;;;;11.40;70.00;;;;;;5023059;28;88048;-42
2022/10/04 07:07:34;;;;;;;;;;;11.50;70.20;;;;;;5024041;28;86483;-42
2022/10/04 07:10:18;;;;;;;;;;;11.40;70.10;;;;;;5023523;28;87070;-42
2022/10/04 07:12:48;;;;;;;;;;;11.40;70.00;;;;;;5023142;28;87823;-41
2022/10/04 07:15:20;;;;;;;;;;;11.40;70.00;;;;;;5022299;28;88065;-42
2022/10/04 07:17:47;;;;;;;;;;;11.40;70.10;;;;;;5025733;28;88377;-42
2022/10/04 07:20:19;;;;;;;;;;;11.40;70.00;;;;;;5023345;28;87310;-42
2022/10/04 07:22:49;;;;;;;;;;;11.40;70.10;;;;;;5023208;28;87171;-41
2022/10/04 07:25:20;;;;;;;;;;;11.40;70.40;;;;;;5022995;28;88013;-42
2022/10/04 07:27:48;;;;;;;;;;;11.40;70.20;;;;;;5022713;28;87057;-42
2022/10/04 07:30:15;;;;;;;;;;;11.30;70.20;;;;;;5022430;28;87364;-41
2022/10/04 07:32:49;;;;;;;;;;;11.40;70.20;;;;;;5023376;28;86465;-42
2022/10/04 07:35:30;;;;;;;;;;;11.40;70.30;;;;;;5022705;28;87047;-41
2022/10/04 07:38:09;;;;;;;;;;;11.40;70.20;;;;;;5023307;28;87438;-42
2022/10/04 07:40:40;;;;;;;;;;;11.30;70.30;;;;;;5025043;28;88928;-42
2022/10/04 07:43:26;;;;;;;;;;;11.40;70.20;;;;;;5022996;28;88360;-42
2022/10/04 07:46:00;;;;;;;;;;;11.40;70.80;;;;;;5022552;28;88035;-42
2022/10/04 07:48:26;;;;;;;;;;;11.40;70.20;;;;;;5023062;28;87162;-41
2022/10/04 07:51:03;;;;;;;;;;;11.40;70.20;;;;;;5022740;28;87544;-41
2022/10/04 07:53:45;;;;;;;;;;;11.40;70.30;;;;;;5022538;28;88218;-42
2022/10/04 07:56:15;;;;;;;;;;;11.30;70.50;;;;;;5022677;28;87473;-42
2022/10/04 07:58:46;;;;;;;;;;;11.30;70.40;;;;;;5023057;28;88408;-42
2022/10/04 08:01:25;;;;;;;;;;;11.40;70.40;;;;;;5022426;28;88177;-42
2022/10/04 08:04:10;;;;;;;;;;;11.30;70.30;;;;;;5025775;28;86955;-42
2022/10/04 08:06:48;;;;;;;;;;;11.30;70.50;;;;;;5020241;28;90378;-42
2022/10/04 08:09:15;;;;;;;;;;;11.30;70.30;;;;;;5022980;28;86949;-41
2022/10/04 08:11:42;;;;;;;;;;;11.30;70.60;;;;;;5022504;28;87063;-41
2022/10/04 08:14:07;;;;;;;;;;;11.30;70.30;;;;;;5022105;28;87893;-41
2022/10/04 08:16:37;;;;;;;;;;;11.30;70.40;;;;;;5022673;28;87273;-42
2022/10/04 08:19:11;;;;;;;;;;;11.30;70.40;;;;;;5022514;28;87504;-41
2022/10/04 08:21:46;;;;;;;;;;;11.30;70.30;;;;;;5022152;28;87293;-41
2022/10/04 08:24:26;;;;;;;;;;;11.30;70.30;;;;;;5022675;28;86862;-42
2022/10/04 08:26:58;;;;;;;;;;;11.30;70.30;;;;;;5025233;28;86922;-42
2022/10/04 08:29:43;;;;;;;;;;;11.30;70.40;;;;;;5022312;28;87207;-42
2022/10/04 08:32:22;;;;;;;;;;;11.30;70.30;;;;;;5021222;28;88061;-41
2022/10/04 08:35:06;;;;;;;;;;;11.30;70.40;;;;;;5021866;28;88094;-41
2022/10/04 08:37:42;;;;;;;;;;;11.30;70.40;;;;;;5022452;28;87098;-41
2022/10/04 08:40:33;;;;;;;;;;;11.30;70.40;;;;;;5023434;28;87389;-41
2022/10/04 08:43:01;;;;;;;;;;;11.30;70.20;;;;;;5025351;28;87891;-42
2022/10/04 08:45:45;;;;;;;;;;;11.30;70.30;;;;;;5025773;28;87105;-41
2022/10/04 08:48:29;;;;;;;;;;;11.30;70.50;;;;;;5026035;28;87454;-41
2022/10/04 08:50:57;;;;;;;;;;;11.30;70.50;;;;;;5028407;28;87312;-41
2022/10/04 08:53:23;;;;;;;;;;;11.30;70.40;;;;;;5025528;28;87072;-42
2022/10/04 08:56:04;;;;;;;;;;;11.20;70.60;;;;;;5025404;28;88087;-41
2022/10/04 08:58:42;;;;;;;;;;;11.20;70.50;;;;;;5024808;28;87935;-41
2022/10/04 09:01:26;;;;;;;;;;;11.20;70.50;;;;;;5025523;28;88550;-41
2022/10/04 09:04:10;;;;;;;;;;;11.30;70.60;;;;;;5025096;28;88209;-41
2022/10/04 09:06:38;;;;;;;;;;;11.30;70.40;;;;;;5025691;28;86888;-41
2022/10/04 09:09:22;;;;;;;;;;;11.20;70.60;;;;;;5025396;28;87369;-40
2022/10/04 09:12:15;;;;;;;;;;;11.20;70.70;;;;;;5025183;28;88095;-41
2022/10/04 09:14:55;;;;;;;;;;;11.20;70.60;;;;;;5027366;28;87064;-41
2022/10/04 09:17:29;;;;;;;;;;;11.20;70.60;;;;;;5025646;28;87317;-41
2022/10/04 09:20:00;;;;;;;;;;;11.20;70.70;;;;;;5025174;28;87005;-42
2022/10/04 09:22:46;;;;;;;;;;;11.20;70.80;;;;;;5025377;28;87297;-42
2022/10/04 09:25:19;;;;;;;;;;;11.30;70.60;;;;;;5023548;28;89067;-41
2022/10/04 09:28:03;;;;;;;;;;;11.30;70.70;;;;;;5025107;28;87617;-42
2022/10/04 09:30:54;;;;;;;;;;;11.20;70.70;;;;;;5025003;28;87490;-42
2022/10/04 09:33:29;;;;;;;;;;;11.20;70.80;;;;;;5022631;28;87881;-42
2022/10/04 09:36:05;;;;;;;;;;;11.20;70.70;;;;;;5027997;28;86999;-42
2022/10/04 09:38:37;;;;;;;;;;;11.20;70.70;;;;;;5024683;28;88070;-42
2022/10/04 09:41:19;;;;;;;;;;;11.30;70.70;;;;;;5024855;28;87099;-41
2022/10/04 09:43:47;;;;;;;;;;;11.30;70.80;;;;;;5025373;28;87346;-42
2022/10/04 09:46:27;;;;;;;;;;;11.30;70.50;;;;;;5024456;28;87265;-41
2022/10/04 09:48:55;;;;;;;;;;;11.40;70.20;;;;;;5024686;28;87079;-41
2022/10/04 09:51:24;;;;;;;;;;;11.40;70.20;;;;;;5023636;28;87885;-41
2022/10/04 09:53:51;;;;;;;;;;;11.40;70.10;;;;;;5024341;28;87753;-41
2022/10/04 09:56:17;;;;;;;;;;;11.30;70.30;;;;;;5024541;28;87143;-42
2022/10/04 09:58:57;;;;;;;;;;;11.40;70.30;;;;;;5027086;28;87388;-41
2022/10/04 10:01:29;;;;;;;;;;;11.50;69.90;;;;;;5024761;28;87319;-41
2022/10/04 10:04:03;;;;;;;;;;;11.50;69.80;;;;;;5024663;28;87059;-41
2022/10/04 10:06:40;;;;;;;;;;;11.50;70.00;;;;;;5024054;28;87269;-41
2022/10/04 10:09:10;;;;;;;;;;;11.50;70.10;;;;;;5024782;28;86409;-42
2022/10/04 10:14:22;;;;;;;;;;;11.40;70.10;;;;;;5024040;28;87133;-42
2022/10/04 10:17:06;;;;;;;;;;;11.40;70.00;;;;;;5023169;28;88210;-42
2022/10/04 10:19:55;;;;;;;;;;;11.40;70.20;;;;;;5024438;28;87579;-42
2022/10/04 10:22:50;;;;;;;;;;;11.40;70.30;;;;;;5026029;28;87968;-41
2022/10/04 10:25:26;;;;;;;;;;;11.40;70.30;;;;;;5021286;28;87419;-41
2022/10/04 10:28:10;;;;;;;;;;;11.40;70.20;;;;;;5023978;28;87945;-41
2022/10/04 10:30:39;;;;;;;;;;;11.40;70.30;;;;;;5023999;28;86992;-41
2022/10/04 10:33:18;;;;;;;;;;;11.40;70.30;;;;;;5024109;28;87352;-42
2022/10/04 10:35:47;;;;;;;;;;;11.40;70.40;;;;;;5023937;28;87260;-41
2022/10/04 10:38:34;;;;;;;;;;;11.40;70.30;;;;;;5023934;28;87098;-41
2022/10/04 10:41:10;;;;;;;;;;;11.50;70.30;;;;;;5023752;28;87353;-42
2022/10/04 10:43:36;;;;;;;;;;;11.50;69.90;;;;;;5023113;28;88287;-42
2022/10/04 10:46:12;;;;;;;;;;;11.60;69.90;;;;;;5026978;28;87119;-42
2022/10/04 10:48:48;;;;;;;;;;;11.60;69.70;;;;;;5023068;28;87905;-41
2022/10/04 10:51:29;;;;;;;;;;;11.50;69.90;;;;;;5023922;28;87250;-41
2022/10/04 10:54:04;;;;;;;;;;;11.50;70.20;;;;;;5023924;28;87354;-42
2022/10/04 10:56:42;;;;;;;;;;;11.50;70.10;;;;;;5023327;28;88149;-41
2022/10/04 10:59:27;;;;;;;;;;;11.50;70.30;;;;;;5023393;28;87113;-41
2022/10/04 11:02:11;;;;;;;;;;;11.50;70.30;;;;;;5024102;28;87177;-42
2022/10/04 11:04:50;;;;;;;;;;;11.40;70.40;;;;;;5023094;28;88119;-41
2022/10/04 11:07:31;;;;;;;;;;;11.40;70.30;;;;;;5023608;28;86980;-41
2022/10/04 11:10:15;;;;;;;;;;;11.40;70.50;;;;;;5025635;28;88012;-42
2022/10/04 11:12:40;;;;;;;;;;;11.40;70.60;;;;;;5023517;28;86709;-42
2022/10/04 11:15:25;;;;;;;;;;;11.40;70.70;;;;;;5023105;28;87453;-42
2022/10/04 11:18:10;;;;;;;;;;;11.40;70.80;;;;;;5023035;28;88004;-41
2022/10/04 11:20:54;;;;;;;;;;;11.40;70.80;;;;;;5023436;28;87109;-42
2022/10/04 11:23:26;;;;;;;;;;;11.40;70.90;;;;;;5023474;28;87980;-41
2022/10/04 11:25:51;;;;;;;;;;;11.40;70.80;;;;;;5022719;28;88021;-41
2022/10/04 11:28:21;;;;;;;;;;;11.40;70.80;;;;;;5023738;28;86508;-41
2022/10/04 11:31:01;;;;;;;;;;;11.40;71.10;;;;;;5023026;28;87031;-42
2022/10/04 11:33:45;;;;;;;;;;;11.40;71.00;;;;;;5025587;28;88102;-41
2022/10/04 11:36:11;;;;;;;;;;;11.40;70.80;;;;;;5022584;28;88179;-42
2022/10/04 11:38:47;;;;;;;;;;;11.40;70.80;;;;;;5022618;28;87968;-41
2022/10/04 11:41:32;;;;;;;;;;;11.40;70.90;;;;;;5022772;28;87068;-42
2022/10/04 11:44:13;;;;;;;;;;;11.50;70.70;;;;;;5023043;28;87416;-41
2022/10/04 11:46:59;;;;;;;;;;;11.50;70.80;;;;;;5022732;28;88140;-41
2022/10/04 11:49:32;;;;;;;;;;;11.40;71.10;;;;;;5022396;28;87040;-41
2022/10/04 11:52:04;;;;;;;;;;;11.40;71.10;;;;;;5022924;28;87364;-41
2022/10/04 11:54:48;;;;;;;;;;;11.40;71.10;;;;;;5026015;28;87322;-41
2022/10/04 11:57:30;;;;;;;;;;;11.40;71.20;;;;;;5022752;28;87383;-42
2022/10/04 11:59:59;;;;;;;;;;;11.40;71.40;;;;;;5022424;28;88051;-42
2022/10/04 12:02:44;;;;;;;;;;;11.40;71.50;;;;;;5022075;28;88139;-42
2022/10/04 12:05:15;;;;;;;;;;;11.40;71.30;;;;;;5022797;28;88251;-42
2022/10/04 12:07:46;;;;;;;;;;;11.30;71.40;;;;;;5022060;28;88080;-41
2022/10/04 12:10:30;;;;;;;;;;;11.40;71.30;;;;;;5022681;28;87129;-42
2022/10/04 12:13:05;;;;;;;;;;;11.40;71.50;;;;;;5022641;28;87563;-41
2022/10/04 12:15:44;;;;;;;;;;;11.40;71.70;;;;;;5021511;28;88029;-41
2022/10/04 12:18:16;;;;;;;;;;;11.40;71.60;;;;;;5025618;28;86833;-42
2022/10/04 12:20:52;;;;;;;;;;;11.40;71.60;;;;;;5022655;28;86677;-42
2022/10/04 12:23:18;;;;;;;;;;;11.40;71.70;;;;;;5022537;28;87043;-42
2022/10/04 12:25:59;;;;;;;;;;;11.40;71.70;;;;;;5022322;28;87365;-41
2022/10/04 12:29:00;;;;;;;;;;;11.40;71.60;;;;;;5021542;28;88904;-42
2022/10/04 12:31:40;;;;;;;;;;;11.40;71.70;;;;;;5019902;28;87083;-42
2022/10/04 12:34:13;;;;;;;;;;;11.40;71.90;;;;;;5021912;28;87497;-42
2022/10/04 12:36:47;;;;;;;;;;;11.40;71.80;;;;;;5022069;28;87821;-42
2022/10/04 12:39:27;;;;;;;;;;;11.40;71.80;;;;;;5021995;28;87203;-42
2022/10/04 12:42:11;;;;;;;;;;;11.40;71.90;;;;;;5024983;28;87431;-42
2022/10/04 12:44:51;;;;;;;;;;;11.40;72.00;;;;;;5022265;28;87219;-41
2022/10/04 12:47:25;;;;;;;;;;;11.40;72.00;;;;;;5022829;28;87612;-42
2022/10/04 12:49:56;;;;;;;;;;;11.40;72.00;;;;;;5021280;28;88063;-41
2022/10/04 12:52:24;;;;;;;;;;;11.50;72.00;;;;;;5020789;28;87209;-42
2022/10/04 12:54:59;;;;;;;;;;;11.50;72.00;;;;;;5021222;28;87943;-42
2022/10/04 12:57:28;;;;;;;;;;;11.40;72.00;;;;;;5021649;28;88236;-41
2022/10/04 12:59:58;;;;;;;;;;;11.40;71.90;;;;;;5021796;28;87088;-41
2022/10/04 13:02:42;;;;;;;;;;;11.50;72.00;;;;;;5021913;28;88695;-42
2022/10/04 13:05:10;;;;;;;;;;;11.40;72.00;;;;;;5024470;28;88004;-41
2022/10/04 13:07:55;;;;;;;;;;;11.40;72.00;;;;;;5022097;28;87842;-42
2022/10/04 13:10:35;;;;;;;;;;;11.50;71.90;;;;;;5021529;28;87183;-42
2022/10/04 13:13:19;;;;;;;;;;;11.40;72.00;;;;;;5022533;28;86374;-42
2022/10/04 13:16:07;;;;;;;;;;;11.50;72.00;;;;;;5021900;28;87012;-42
2022/10/04 13:18:33;;;;;;;;;;;11.50;72.10;;;;;;5019780;28;88268;-42
2022/10/04 13:21:00;;;;;;;;;;;11.50;72.10;;;;;;5020902;28;87966;-41
2022/10/04 13:23:32;;;;;;;;;;;11.50;72.00;;;;;;5021651;28;88688;-42
2022/10/04 13:26:16;;;;;;;;;;;11.50;72.00;;;;;;5021337;28;88337;-41
2022/10/04 13:29:01;;;;;;;;;;;11.50;72.10;;;;;;5027900;28;87089;-41
2022/10/04 13:31:49;;;;;;;;;;;11.50;72.00;;;;;;5024555;28;87806;-42
2022/10/04 13:34:22;;;;;;;;;;;11.50;72.00;;;;;;5024769;28;87073;-41
2022/10/04 13:37:06;;;;;;;;;;;11.50;72.10;;;;;;5025228;28;87548;-41
2022/10/04 13:39:32;;;;;;;;;;;11.50;72.10;;;;;;5023646;28;87625;-42
2022/10/04 13:42:07;;;;;;;;;;;11.50;72.00;;;;;;5024798;28;87118;-42
2022/10/04 13:44:38;;;;;;;;;;;11.50;72.10;;;;;;5024988;28;87342;-42
2022/10/04 13:47:12;;;;;;;;;;;11.50;72.00;;;;;;5023966;28;88991;-41
2022/10/04 13:49:47;;;;;;;;;;;11.50;72.10;;;;;;5024685;28;86933;-42
2022/10/04 13:58:53;;;;;;;;;;;11.50;72.20;;;;;;5024942;28;87338;-42
2022/10/04 14:01:25;;;;;;;;;;;11.50;72.10;;;;;;5022995;28;87196;-42
2022/10/04 14:03:53;;;;;;;;;;;11.50;72.20;;;;;;5024662;28;87224;-42
2022/10/04 14:06:27;;;;;;;;;;;11.50;72.20;;;;;;5025160;28;87631;-42
2022/10/04 14:09:13;;;;;;;;;;;11.50;72.20;;;;;;5024114;28;88038;-42
2022/10/04 14:11:57;;;;;;;;;;;11.50;72.20;;;;;;5022749;28;87115;-42
2022/10/04 14:14:28;;;;;;;;;;;11.50;72.20;;;;;;5026380;28;87927;-42
2022/10/04 14:17:05;;;;;;;;;;;11.50;72.20;;;;;;5024271;28;87138;-41
2022/10/04 14:19:31;;;;;;;;;;;11.60;72.20;;;;;;5024370;28;87596;-41
2022/10/04 14:22:16;;;;;;;;;;;11.60;72.30;;;;;;5024080;28;87995;-42
2022/10/04 14:24:48;;;;;;;;;;;11.60;72.20;;;;;;5024348;28;87095;-41
2022/10/04 14:27:32;;;;;;;;;;;11.60;72.20;;;;;;5024094;28;87442;-42
2022/10/04 14:30:16;;;;;;;;;;;11.60;72.10;;;;;;5023677;28;87425;-42
2022/10/04 14:32:53;;;;;;;;;;;11.60;72.10;;;;;;5024841;28;86273;-42
2022/10/04 14:35:22;;;;;;;;;;;11.60;72.10;;;;;;5024183;28;87107;-42
2022/10/04 14:38:06;;;;;;;;;;;11.60;72.00;;;;;;5026137;28;87668;-41
2022/10/04 14:40:52;;;;;;;;;;;11.60;72.00;;;;;;5023536;28;87868;-42
2022/10/04 14:43:30;;;;;;;;;;;11.60;72.10;;;;;;5023818;28;87963;-42
2022/10/04 14:45:55;;;;;;;;;;;11.60;72.10;;;;;;5024027;28;87054;-41
2022/10/04 14:48:24;;;;;;;;;;;11.60;72.10;;;;;;5023973;28;87382;-42
2022/10/04 14:50:56;;;;;;;;;;;11.60;72.00;;;;;;5022960;28;88165;-41
2022/10/04 14:53:26;;;;;;;;;;;11.60;72.00;;;;;;5023273;28;86958;-41
2022/10/04 14:56:10;;;;;;;;;;;11.60;72.00;;;;;;5023812;28;87358;-41
2022/10/04 14:58:48;;;;;;;;;;;11.60;72.00;;;;;;5023761;28;87028;-41
2022/10/04 15:01:21;;;;;;;;;;;11.60;72.10;;;;;;5026707;28;87965;-42
2022/10/04 15:03:54;;;;;;;;;;;11.60;72.00;;;;;;5023174;28;87929;-41
2022/10/04 15:06:38;;;;;;;;;;;11.70;72.00;;;;;;5023105;28;88034;-42